Time;durP1;ratioP1;P1;durP2;ratioP2;P2;SDS_P1;SDS_P2;PMS_P1;PMS_P2;Temp;Humidity;BMP_temperature;BMP_pressure;BME280_temperature;BME280_humidity;BME280_pressure;Samples;Min_cycle;Max_cycle;Signal;HPM_P1;HPM_P2
2023/01/14 00:01:35;;;;;;;0.80;0.80;;;7.90;99.90;;;;;;4404689;32;20396;-72
2023/01/14 00:04:01;;;;;;;0.30;0.30;;;7.90;99.90;;;;;;4405762;32;20406;-73
2023/01/14 00:06:31;;;;;;;0.30;0.30;;;7.90;99.90;;;;;;4405764;32;20394;-72
2023/01/14 00:08:59;;;;;;;0.50;0.50;;;7.90;99.90;;;;;;4405034;32;20069;-74
2023/01/14 00:11:57;;;;;;;0.40;0.40;;;7.80;99.90;;;;;;4391607;32;20109;-74
2023/01/14 00:14:13;;;;;;;0.40;0.40;;;7.80;99.90;;;;;;4376830;32;20549;-73
2023/01/14 00:16:38;;;;;;;2.40;1.20;;;7.80;99.90;;;;;;4403479;32;20151;-74
2023/01/14 00:19:04;;;;;;;0.37;0.37;;;7.70;99.90;;;;;;4402923;32;20553;-73
2023/01/14 00:21:30;;;;;;;0.40;0.40;;;7.70;99.90;;;;;;4406109;32;20066;-73
2023/01/14 00:23:55;;;;;;;0.40;0.40;;;7.60;99.90;;;;;;4405245;32;20124;-73
2023/01/14 00:26:21;;;;;;;0.40;0.40;;;7.60;99.90;;;;;;4404917;32;20552;-72
2023/01/14 00:28:49;;;;;;;0.43;0.43;;;7.60;99.90;;;;;;4404562;32;20065;-73
2023/01/14 00:31:18;;;;;;;0.40;0.40;;;7.70;99.90;;;;;;4403197;32;20097;-74
2023/01/14 00:33:44;;;;;;;0.37;0.37;;;7.70;99.90;;;;;;4403164;32;20073;-73
2023/01/14 00:36:12;;;;;;;2.17;0.68;;;7.80;99.90;;;;;;4407051;32;20083;-73
2023/01/14 00:38:38;;;;;;;0.40;0.40;;;7.80;99.90;;;;;;4404252;32;20113;-73
2023/01/14 00:41:07;;;;;;;0.50;0.50;;;7.80;99.90;;;;;;4394441;32;20136;-75
2023/01/14 00:43:35;;;;;;;0.40;0.40;;;7.80;99.90;;;;;;4388731;32;20086;-75
2023/01/14 00:46:01;;;;;;;0.80;0.73;;;7.90;99.90;;;;;;4399718;32;20081;-74
2023/01/14 00:48:26;;;;;;;0.32;0.32;;;7.90;99.90;;;;;;4404508;32;20083;-73
2023/01/14 00:50:52;;;;;;;0.40;0.40;;;7.90;99.90;;;;;;4409071;32;20066;-72
2023/01/14 00:53:17;;;;;;;0.43;0.43;;;7.90;99.90;;;;;;4408881;32;20093;-72
2023/01/14 00:55:43;;;;;;;0.40;0.40;;;7.90;99.90;;;;;;4407033;32;20493;-73
2023/01/14 00:58:10;;;;;;;0.32;0.32;;;7.90;99.90;;;;;;4393944;32;20585;-75
2023/01/14 01:00:35;;;;;;;2.20;1.23;;;7.80;99.90;;;;;;4409703;32;20791;-74
2023/01/14 01:03:02;;;;;;;0.40;0.40;;;7.80;99.90;;;;;;4408400;32;20080;-72
2023/01/14 01:05:27;;;;;;;1.00;0.52;;;7.80;99.90;;;;;;4407603;32;20081;-72
2023/01/14 01:07:53;;;;;;;1.12;0.75;;;7.90;99.90;;;;;;4408224;32;20553;-73
2023/01/14 01:10:18;;;;;;;0.37;0.37;;;7.90;99.90;;;;;;4403015;32;20113;-75
2023/01/14 01:12:44;;;;;;;0.30;0.30;;;7.90;99.90;;;;;;4389681;32;20085;-74
2023/01/14 01:15:09;;;;;;;0.30;0.30;;;8.00;99.90;;;;;;4396168;32;20085;-73
2023/01/14 01:17:35;;;;;;;0.37;0.37;;;8.00;99.90;;;;;;4407135;32;20101;-72
2023/01/14 01:20:00;;;;;;;0.50;0.50;;;8.00;99.90;;;;;;4408402;32;20153;-73
2023/01/14 01:22:28;;;;;;;0.85;0.85;;;8.00;99.90;;;;;;4408234;32;20082;-73
2023/01/14 01:24:54;;;;;;;0.40;0.40;;;8.00;99.90;;;;;;4408628;32;20406;-74
2023/01/14 01:27:19;;;;;;;0.40;0.40;;;8.00;99.90;;;;;;4407901;32;20106;-75
2023/01/14 01:29:45;;;;;;;3.20;0.70;;;8.10;99.90;;;;;;4408401;32;20085;-73
2023/01/14 01:32:10;;;;;;;1.02;1.00;;;8.00;99.90;;;;;;4407110;32;20125;-73
2023/01/14 01:34:36;;;;;;;0.40;0.40;;;8.00;99.90;;;;;;4406308;32;20085;-73
2023/01/14 01:37:01;;;;;;;0.40;0.40;;;8.00;99.90;;;;;;4408542;32;20521;-72
2023/01/14 01:39:27;;;;;;;0.40;0.40;;;8.00;99.90;;;;;;4407198;32;20073;-76
2023/01/14 01:41:52;;;;;;;0.82;0.77;;;8.00;99.90;;;;;;4392671;32;20315;-73
2023/01/14 01:44:20;;;;;;;0.30;0.30;;;8.00;99.90;;;;;;4391988;32;20172;-72
2023/01/14 01:46:45;;;;;;;0.90;0.65;;;8.00;99.90;;;;;;4406911;32;20073;-73
2023/01/14 01:49:17;;;;;;;0.65;0.50;;;8.00;99.90;;;;;;4408753;32;20520;-71
2023/01/14 01:51:49;;;;;;;0.30;0.30;;;7.90;99.90;;;;;;4393512;32;20070;-71
2023/01/14 01:54:17;;;;;;;0.32;0.32;;;7.90;99.90;;;;;;4407674;32;20118;-74
2023/01/14 01:56:46;;;;;;;0.43;0.43;;;8.00;99.90;;;;;;4406728;32;20090;-72
2023/01/14 01:59:18;;;;;;;1.15;0.77;;;8.00;99.90;;;;;;4408057;32;20114;-72
2023/01/14 02:01:44;;;;;;;0.30;0.30;;;8.00;99.90;;;;;;4407458;32;20090;-73
2023/01/14 02:04:12;;;;;;;0.40;0.40;;;8.00;99.90;;;;;;4407832;32;20090;-73
2023/01/14 02:06:38;;;;;;;5.93;1.00;;;8.10;99.90;;;;;;4407441;32;20091;-74
2023/01/14 02:09:05;;;;;;;0.40;0.40;;;8.10;99.90;;;;;;4404854;32;21018;-71
2023/01/14 02:11:57;;;;;;;0.40;0.40;;;8.10;99.90;;;;;;4391758;32;20138;-75
2023/01/14 02:14:42;;;;;;;0.45;0.45;;;8.10;99.90;;;;;;4379196;32;20227;-75
2023/01/14 02:17:17;;;;;;;0.45;0.45;;;8.20;99.90;;;;;;4407061;32;20512;-73
2023/01/14 02:20:04;;;;;;;0.40;0.40;;;8.20;99.90;;;;;;4407000;32;20524;-72
2023/01/14 02:23:01;;;;;;;0.50;0.50;;;8.20;99.90;;;;;;4395719;32;20115;-73
2023/01/14 02:25:49;;;;;;;3.97;1.30;;;8.20;99.90;;;;;;4395743;32;20432;-73
2023/01/14 02:28:44;;;;;;;0.40;0.40;;;8.20;99.90;;;;;;4393712;32;20089;-75
2023/01/14 02:31:14;;;;;;;0.50;0.50;;;8.20;99.90;;;;;;4396151;32;20078;-73
2023/01/14 02:33:58;;;;;;;0.40;0.40;;;8.10;99.90;;;;;;4405584;32;20082;-72
2023/01/14 02:36:40;;;;;;;0.50;0.50;;;8.10;99.90;;;;;;4407545;32;20090;-74
2023/01/14 02:39:32;;;;;;;0.40;0.40;;;8.10;99.90;;;;;;4404077;32;20580;-73
2023/01/14 02:44:11;;;;;;;0.30;0.30;;;8.00;99.90;;;;;;4379237;32;20070;-75
2023/01/14 02:44:57;;;;;;;0.40;0.40;;;8.00;99.90;;;;;;4380695;32;20070;-73
2023/01/14 02:47:25;;;;;;;0.57;0.57;;;8.00;99.90;;;;;;4392529;32;20090;-72
2023/01/14 02:49:55;;;;;;;0.40;0.40;;;8.00;99.90;;;;;;4406494;32;20078;-73
2023/01/14 02:52:21;;;;;;;0.50;0.50;;;8.00;99.90;;;;;;4407338;32;20497;-72
2023/01/14 02:54:56;;;;;;;0.30;0.30;;;8.10;99.90;;;;;;4406636;32;20104;-74
2023/01/14 02:57:54;;;;;;;0.40;0.40;;;8.10;99.90;;;;;;4406487;32;21132;-73
2023/01/14 03:00:34;;;;;;;0.40;0.40;;;8.10;99.90;;;;;;4394938;32;20089;-73
2023/01/14 03:03:23;;;;;;;0.40;0.40;;;8.10;99.90;;;;;;4405880;32;20097;-73
2023/01/14 03:06:29;;;;;;;0.40;0.40;;;8.10;99.90;;;;;;4394732;32;20526;-72
2023/01/14 03:09:19;;;;;;;0.50;0.50;;;8.10;99.90;;;;;;4391381;32;20089;-74
2023/01/14 03:12:15;;;;;;;0.40;0.40;;;8.10;99.90;;;;;;4378777;32;20097;-76
2023/01/14 03:15:05;;;;;;;0.30;0.30;;;8.10;99.90;;;;;;4383134;32;20144;-72
2023/01/14 03:17:34;;;;;;;0.40;0.40;;;8.00;99.90;;;;;;4406395;32;20089;-74
2023/01/14 03:20:07;;;;;;;0.90;0.77;;;8.00;99.90;;;;;;4404695;32;20082;-72
2023/01/14 03:22:33;;;;;;;0.30;0.30;;;8.00;99.90;;;;;;4404533;32;20101;-72
2023/01/14 03:25:02;;;;;;;0.77;0.77;;;7.90;99.90;;;;;;4405351;32;20074;-72
2023/01/14 03:27:33;;;;;;;0.37;0.37;;;7.90;99.90;;;;;;4404910;32;20427;-73
2023/01/14 03:30:04;;;;;;;0.50;0.50;;;7.90;99.90;;;;;;4405227;32;21238;-72
2023/01/14 03:32:39;;;;;;;0.52;0.52;;;7.90;99.90;;;;;;4405975;32;20446;-73
2023/01/14 03:35:17;;;;;;;0.50;0.50;;;7.90;99.90;;;;;;4408413;32;20432;-72
2023/01/14 03:38:06;;;;;;;0.57;0.57;;;7.90;99.90;;;;;;4406739;32;20094;-71
2023/01/14 03:40:35;;;;;;;0.50;0.50;;;7.90;99.90;;;;;;4387082;32;20144;-72
2023/01/14 03:43:09;;;;;;;1.30;1.20;;;7.90;99.90;;;;;;4388935;32;20076;-76
2023/01/14 03:45:37;;;;;;;0.90;0.62;;;7.90;99.90;;;;;;4398902;32;20847;-74
2023/01/14 03:48:04;;;;;;;0.82;0.82;;;8.00;99.90;;;;;;4405744;32;20110;-71
2023/01/14 03:50:42;;;;;;;1.02;0.90;;;8.00;99.90;;;;;;4405441;32;20107;-75
2023/01/14 03:53:17;;;;;;;2.60;0.77;;;8.00;99.90;;;;;;4405139;32;20090;-73
2023/01/14 03:55:56;;;;;;;0.40;0.40;;;8.00;99.90;;;;;;4404949;32;20099;-72
2023/01/14 03:58:46;;;;;;;0.40;0.40;;;8.00;99.90;;;;;;4405230;32;20083;-73
2023/01/14 04:01:34;;;;;;;18.27;0.68;;;8.00;99.90;;;;;;4406441;32;20077;-75
2023/01/14 04:04:01;;;;;;;0.60;0.60;;;8.00;99.90;;;;;;4395515;32;20065;-73
2023/01/14 04:06:27;;;;;;;0.40;0.40;;;8.00;99.90;;;;;;4405925;32;20062;-72
2023/01/14 04:08:52;;;;;;;0.30;0.30;;;8.00;99.90;;;;;;4406494;32;20370;-73
2023/01/14 04:11:18;;;;;;;0.40;0.40;;;7.90;99.90;;;;;;4393168;32;20078;-74
2023/01/14 04:15:43;;;;;;;0.43;0.43;;;7.90;99.90;;;;;;4390557;32;20070;-75
2023/01/14 04:16:30;;;;;;;0.50;0.50;;;7.90;99.90;;;;;;4391551;32;20144;-73
2023/01/14 04:18:55;;;;;;;0.50;0.50;;;7.90;99.90;;;;;;4407070;32;20279;-75
2023/01/14 04:21:21;;;;;;;0.50;0.50;;;7.90;99.90;;;;;;4405731;32;20498;-74
2023/01/14 04:23:46;;;;;;;0.57;0.57;;;7.90;99.90;;;;;;4405651;32;20133;-72
2023/01/14 04:26:12;;;;;;;3.50;1.05;;;7.90;99.90;;;;;;4407996;32;20531;-74
2023/01/14 04:28:37;;;;;;;0.32;0.32;;;7.90;99.90;;;;;;4407601;32;20081;-73
2023/01/14 04:31:03;;;;;;;0.32;0.32;;;7.90;99.90;;;;;;4408206;32;20530;-73
2023/01/14 04:33:28;;;;;;;0.30;0.30;;;7.90;99.90;;;;;;4408310;32;20082;-74
2023/01/14 04:35:54;;;;;;;0.57;0.57;;;7.90;99.90;;;;;;4407884;32;20501;-75
2023/01/14 04:38:21;;;;;;;6.35;1.30;;;7.90;99.90;;;;;;4408831;32;20078;-73
2023/01/14 04:40:49;;;;;;;1.23;0.55;;;7.90;99.90;;;;;;4397947;32;20082;-75
2023/01/14 04:43:15;;;;;;;0.80;0.62;;;7.90;99.90;;;;;;4389687;32;20110;-75
2023/01/14 04:45:42;;;;;;;0.30;0.30;;;7.90;99.90;;;;;;4402289;32;20459;-73
2023/01/14 04:48:07;;;;;;;0.43;0.43;;;7.90;99.90;;;;;;4407395;32;20451;-74
2023/01/14 04:50:34;;;;;;;0.30;0.30;;;7.90;99.90;;;;;;4406855;32;20069;-73
2023/01/14 04:53:13;;;;;;;0.55;0.55;;;8.00;99.90;;;;;;4408962;32;20558;-75
2023/01/14 04:55:40;;;;;;;0.50;0.50;;;7.90;99.90;;;;;;4407533;32;20148;-72
2023/01/14 04:58:08;;;;;;;0.35;0.35;;;7.90;99.90;;;;;;4410171;32;20084;-75
2023/01/14 05:00:34;;;;;;;0.40;0.40;;;8.00;99.90;;;;;;4406906;32;20186;-72
2023/01/14 05:03:03;;;;;;;0.40;0.40;;;7.90;99.90;;;;;;4408255;32;20078;-73
2023/01/14 05:05:28;;;;;;;0.30;0.30;;;7.90;99.90;;;;;;4407179;32;20105;-72
2023/01/14 05:07:54;;;;;;;1.05;0.90;;;7.90;99.90;;;;;;4409571;32;20077;-72
2023/01/14 05:10:19;;;;;;;0.40;0.40;;;7.90;99.90;;;;;;4402137;32;20073;-75
2023/01/14 05:13:02;;;;;;;0.40;0.40;;;7.90;99.90;;;;;;4392161;32;20070;-74
2023/01/14 05:15:33;;;;;;;1.00;0.57;;;7.90;99.90;;;;;;4399676;32;20098;-72
2023/01/14 05:17:59;;;;;;;1.95;0.88;;;7.90;99.90;;;;;;4406270;32;20077;-73
2023/01/14 05:20:26;;;;;;;0.40;0.40;;;7.90;99.90;;;;;;4407885;32;20103;-73
2023/01/14 05:22:56;;;;;;;0.43;0.43;;;7.80;99.90;;;;;;4406856;32;20095;-72
2023/01/14 05:25:22;;;;;;;1.25;0.88;;;7.80;99.90;;;;;;4405514;32;20515;-74
2023/01/14 05:27:48;;;;;;;0.20;0.20;;;7.80;99.90;;;;;;4407218;32;20153;-72
2023/01/14 05:30:13;;;;;;;0.30;0.30;;;7.80;99.90;;;;;;4404633;32;20082;-72
2023/01/14 05:32:39;;;;;;;0.30;0.30;;;7.80;99.90;;;;;;4408387;32;20471;-74
2023/01/14 05:35:05;;;;;;;0.50;0.50;;;7.80;99.90;;;;;;4406504;32;20074;-73
2023/01/14 05:37:33;;;;;;;0.40;0.40;;;7.80;99.90;;;;;;4406615;32;20069;-72
2023/01/14 05:39:59;;;;;;;0.88;0.82;;;7.80;99.90;;;;;;4401974;32;20117;-75
2023/01/14 05:45:48;;;;;;;0.47;0.47;;;7.80;99.90;;;;;;4384445;32;20086;-73
2023/01/14 05:47:56;;;;;;;0.30;0.30;;;7.90;99.90;;;;;;4393843;32;20845;-72
2023/01/14 05:50:21;;;;;;;0.73;0.50;;;7.90;99.90;;;;;;4407099;32;20066;-74
2023/01/14 05:52:47;;;;;;;0.40;0.40;;;7.90;99.90;;;;;;4407512;32;20121;-72
2023/01/14 05:55:13;;;;;;;0.40;0.40;;;7.90;99.90;;;;;;4406778;32;20085;-74
2023/01/14 05:57:38;;;;;;;10.13;1.37;;;7.80;99.90;;;;;;4406968;32;20077;-73
2023/01/14 06:00:05;;;;;;;0.43;0.43;;;7.80;99.90;;;;;;4405511;32;20081;-71
2023/01/14 06:06:24;;;;;;;0.88;0.60;;;7.80;99.90;;;;;;4395808;32;20069;-72
2023/01/14 06:08:02;;;;;;;0.40;0.40;;;7.80;99.90;;;;;;4394640;32;20529;-75
2023/01/14 06:10:28;;;;;;;1.12;0.77;;;7.80;99.90;;;;;;4400407;32;20089;-75
2023/01/14 06:12:58;;;;;;;0.30;0.30;;;7.80;99.90;;;;;;4390029;32;20387;-74
2023/01/14 06:15:25;;;;;;;0.40;0.40;;;7.80;99.90;;;;;;4398884;32;20110;-73
2023/01/14 06:18:08;;;;;;;0.65;0.60;;;7.80;99.90;;;;;;4406931;32;20085;-72
2023/01/14 06:20:34;;;;;;;0.35;0.35;;;7.80;99.90;;;;;;4407219;32;20057;-73
2023/01/14 06:23:00;;;;;;;0.30;0.30;;;7.90;99.90;;;;;;4405684;32;20564;-73
2023/01/14 06:25:25;;;;;;;0.55;0.55;;;7.90;99.90;;;;;;4405360;32;20087;-71
2023/01/14 06:27:51;;;;;;;1.58;0.85;;;7.90;99.90;;;;;;4407353;32;20533;-71
2023/01/14 06:30:18;;;;;;;0.30;0.30;;;7.80;99.90;;;;;;4406671;32;20094;-74
2023/01/14 06:32:43;;;;;;;0.55;0.55;;;7.80;99.90;;;;;;4406018;32;20083;-74
2023/01/14 06:35:09;;;;;;;0.40;0.40;;;7.80;99.90;;;;;;4405793;32;20509;-72
2023/01/14 06:37:34;;;;;;;1.35;0.60;;;7.70;99.90;;;;;;4407458;32;20118;-71
2023/01/14 06:40:00;;;;;;;5.53;1.15;;;7.60;99.90;;;;;;4402451;32;20093;-73
2023/01/14 06:42:25;;;;;;;1.75;0.57;;;7.60;99.90;;;;;;4391847;32;20476;-75
2023/01/14 06:44:50;;;;;;;0.40;0.40;;;7.50;99.90;;;;;;4395366;32;20077;-73
2023/01/14 06:47:16;;;;;;;0.40;0.40;;;7.50;99.90;;;;;;4405592;32;20169;-72
2023/01/14 06:49:41;;;;;;;0.30;0.30;;;7.50;99.90;;;;;;4406072;32;20093;-72
2023/01/14 06:52:07;;;;;;;0.43;0.43;;;7.40;99.90;;;;;;4407050;32;20082;-72
2023/01/14 06:54:33;;;;;;;0.30;0.30;;;7.40;99.90;;;;;;4405916;32;20502;-74
2023/01/14 06:56:58;;;;;;;0.55;0.55;;;7.30;99.90;;;;;;4406038;32;20157;-73
2023/01/14 06:59:23;;;;;;;2.65;0.82;;;7.30;99.90;;;;;;4406386;32;20112;-73
2023/01/14 07:01:49;;;;;;;0.40;0.40;;;7.20;99.90;;;;;;4405932;32;20546;-73
2023/01/14 07:04:14;;;;;;;0.40;0.40;;;7.20;99.90;;;;;;4406010;32;20058;-71
2023/01/14 07:06:40;;;;;;;1.00;0.90;;;7.10;99.90;;;;;;4408010;32;20180;-73
2023/01/14 07:09:05;;;;;;;0.40;0.40;;;7.20;99.90;;;;;;4406728;32;20318;-73
2023/01/14 07:11:31;;;;;;;0.50;0.50;;;7.20;99.90;;;;;;4393692;32;20098;-74
2023/01/14 07:13:56;;;;;;;0.40;0.40;;;7.20;99.90;;;;;;4390391;32;20086;-73
2023/01/14 07:16:22;;;;;;;1.67;0.70;;;7.20;99.90;;;;;;4404190;32;20073;-72
2023/01/14 07:18:47;;;;;;;0.40;0.40;;;7.20;99.90;;;;;;4407362;32;20085;-73
2023/01/14 07:21:13;;;;;;;2.10;0.88;;;7.10;99.90;;;;;;4405853;32;20069;-73
2023/01/14 07:23:38;;;;;;;0.40;0.40;;;7.10;99.90;;;;;;4406283;32;20065;-72
2023/01/14 07:26:04;;;;;;;16.15;4.00;;;7.10;99.90;;;;;;4392018;32;20093;-74
2023/01/14 07:28:29;;;;;;;3.33;3.03;;;7.10;99.90;;;;;;4405894;32;21575;-74
2023/01/14 07:30:55;;;;;;;0.30;0.30;;;7.10;99.90;;;;;;4405718;32;20314;-73
2023/01/14 07:33:21;;;;;;;0.30;0.30;;;7.10;99.90;;;;;;4406358;32;20174;-72
2023/01/14 07:35:51;;;;;;;0.40;0.40;;;7.10;99.90;;;;;;4406734;32;21199;-72
2023/01/14 07:38:17;;;;;;;0.40;0.40;;;7.10;99.90;;;;;;4405205;32;20508;-72
2023/01/14 07:40:42;;;;;;;0.50;0.50;;;7.10;99.90;;;;;;4397689;32;20111;-73
2023/01/14 07:43:08;;;;;;;2.37;0.90;;;7.10;99.90;;;;;;4388306;32;20529;-75
2023/01/14 07:45:35;;;;;;;0.55;0.55;;;7.10;99.90;;;;;;4397877;32;20116;-72
2023/01/14 07:48:01;;;;;;;1.10;0.98;;;7.10;99.90;;;;;;4406289;32;20065;-73
2023/01/14 07:50:26;;;;;;;0.30;0.30;;;7.10;99.90;;;;;;4405644;32;20489;-72
2023/01/14 07:52:55;;;;;;;0.40;0.40;;;7.00;99.90;;;;;;4406607;32;20117;-73
2023/01/14 07:55:21;;;;;;;0.45;0.45;;;7.10;99.90;;;;;;4405934;32;20066;-73
2023/01/14 07:57:47;;;;;;;0.50;0.50;;;7.10;99.90;;;;;;4406082;32;20085;-72
2023/01/14 08:00:13;;;;;;;0.37;0.37;;;7.20;99.90;;;;;;4407551;32;20134;-74
2023/01/14 08:02:38;;;;;;;0.50;0.50;;;7.20;99.90;;;;;;4408326;32;20082;-73
2023/01/14 08:05:04;;;;;;;0.40;0.40;;;7.20;99.90;;;;;;4408049;32;20509;-73
2023/01/14 08:07:30;;;;;;;0.60;0.60;;;7.20;99.90;;;;;;4409311;32;20141;-73
2023/01/14 08:09:55;;;;;;;0.60;0.60;;;7.20;99.90;;;;;;4404852;32;20106;-75
2023/01/14 08:12:21;;;;;;;0.40;0.40;;;7.20;99.90;;;;;;4392011;32;20061;-76
2023/01/14 08:14:46;;;;;;;0.40;0.40;;;7.20;99.90;;;;;;4394984;32;20085;-72
2023/01/14 08:17:12;;;;;;;0.43;0.43;;;7.20;99.90;;;;;;4408793;32;20062;-73
2023/01/14 08:19:38;;;;;;;0.40;0.40;;;7.30;99.90;;;;;;4408065;32;20086;-73
2023/01/14 08:22:04;;;;;;;0.40;0.40;;;7.40;99.90;;;;;;4408939;32;20419;-74
2023/01/14 08:24:29;;;;;;;0.40;0.40;;;7.50;99.90;;;;;;4407272;32;20077;-73
2023/01/14 08:26:55;;;;;;;0.40;0.40;;;7.40;99.90;;;;;;4408366;32;20081;-72
2023/01/14 08:29:20;;;;;;;0.50;0.50;;;7.50;99.90;;;;;;4407169;32;20065;-72
2023/01/14 08:31:51;;;;;;;0.32;0.32;;;7.50;99.90;;;;;;4405840;32;20106;-73
2023/01/14 08:34:17;;;;;;;;;;;7.60;99.90;;;;;;4407664;32;20065;-73
2023/01/14 08:36:43;;;;;;;0.40;0.40;;;7.60;99.90;;;;;;4408228;32;20061;-74
2023/01/14 08:39:09;;;;;;;0.40;0.40;;;7.60;99.90;;;;;;4407490;32;20054;-74
2023/01/14 08:41:36;;;;;;;0.40;0.40;;;7.70;99.90;;;;;;4394359;32;20352;-75
2023/01/14 08:44:01;;;;;;;0.35;0.35;;;7.70;99.90;;;;;;4391319;32;20062;-75
2023/01/14 08:46:26;;;;;;;0.50;0.50;;;7.70;99.90;;;;;;4406424;32;20588;-75
2023/01/14 08:48:52;;;;;;;0.50;0.50;;;7.70;99.90;;;;;;4406320;32;20085;-72
2023/01/14 08:51:18;;;;;;;0.30;0.30;;;7.70;99.90;;;;;;4406937;32;20121;-72
2023/01/14 08:53:43;;;;;;;0.45;0.45;;;7.70;99.90;;;;;;4391496;32;20291;-73
2023/01/14 08:56:14;;;;;;;0.30;0.30;;;7.80;99.90;;;;;;4406380;32;20096;-72
2023/01/14 08:58:39;;;;;;;2.30;1.10;;;7.80;99.90;;;;;;4407457;32;20087;-74
2023/01/14 09:01:07;;;;;;;0.37;0.37;;;7.90;99.90;;;;;;4406954;32;20166;-72
2023/01/14 09:03:35;;;;;;;0.85;0.70;;;7.90;99.90;;;;;;4406945;32;20160;-73
2023/01/14 09:06:03;;;;;;;1.37;0.77;;;8.10;99.90;;;;;;4409477;32;20447;-72
2023/01/14 09:17:12;;;;;;;0.40;0.40;;;8.50;99.90;;;;;;4396453;32;20439;-73
2023/01/14 09:19:42;;;;;;;0.40;0.40;;;8.50;99.90;;;;;;4409040;32;20462;-74
2023/01/14 09:22:10;;;;;;;0.30;0.30;;;8.60;99.90;;;;;;4407805;32;20110;-73
2023/01/14 09:24:36;;;;;;;0.73;0.70;;;8.60;99.90;;;;;;4407397;32;20102;-72
2023/01/14 09:27:01;;;;;;;0.77;0.75;;;8.60;99.90;;;;;;4405931;32;20437;-72
2023/01/14 09:29:27;;;;;;;1.33;0.90;;;8.60;99.90;;;;;;4406463;32;20074;-73
2023/01/14 09:31:52;;;;;;;0.30;0.30;;;8.70;99.90;;;;;;4405702;32;20305;-72
2023/01/14 09:34:18;;;;;;;0.75;0.75;;;8.60;99.90;;;;;;4407320;32;20061;-72
2023/01/14 09:36:44;;;;;;;0.40;0.40;;;8.60;99.90;;;;;;4406098;32;20077;-73
2023/01/14 09:39:09;;;;;;;1.12;0.73;;;8.60;99.90;;;;;;4405978;32;20081;-73
2023/01/14 09:41:39;;;;;;;0.45;0.45;;;8.60;99.90;;;;;;4394777;32;20366;-72
2023/01/14 09:44:07;;;;;;;0.40;0.40;;;8.60;99.90;;;;;;4391330;32;20146;-74
2023/01/14 09:46:33;;;;;;;0.40;0.40;;;8.60;99.90;;;;;;4405164;32;20098;-75
2023/01/14 09:49:01;;;;;;;0.35;0.35;;;8.60;99.90;;;;;;4407594;32;20093;-72
2023/01/14 09:51:38;;;;;;;2.15;0.62;;;8.60;99.90;;;;;;4407465;32;20177;-73
2023/01/14 09:54:26;;;;;;;0.40;0.40;;;8.60;99.90;;;;;;4405133;32;20093;-73
2023/01/14 09:57:04;;;;;;;1.85;0.57;;;8.70;99.90;;;;;;4394689;32;20125;-71
2023/01/14 09:59:57;;;;;;;0.40;0.40;;;8.70;99.90;;;;;;4406797;32;20117;-73
2023/01/14 10:02:48;;;;;;;0.32;0.32;;;8.70;99.90;;;;;;4396107;32;20152;-73
2023/01/14 10:05:20;;;;;;;0.40;0.40;;;8.80;99.90;;;;;;4395161;32;20085;-72
2023/01/14 10:07:47;;;;;;;1.00;0.73;;;8.90;99.90;;;;;;4407291;32;20077;-74
2023/01/14 10:10:35;;;;;;;10.43;1.42;;;9.00;99.90;;;;;;4402072;32;20380;-75
2023/01/14 10:13:05;;;;;;;0.43;0.43;;;9.10;99.90;;;;;;4378969;32;20078;-75
2023/01/14 10:15:40;;;;;;;0.50;0.50;;;9.00;99.90;;;;;;4400516;32;20077;-74
2023/01/14 10:18:31;;;;;;;0.40;0.40;;;9.10;99.90;;;;;;4406905;32;20077;-73
2023/01/14 10:20:59;;;;;;;0.62;0.62;;;9.20;99.90;;;;;;4395955;32;20061;-72
2023/01/14 10:23:29;;;;;;;0.70;0.60;;;9.20;99.90;;;;;;4406869;32;20153;-72
2023/01/14 10:25:56;;;;;;;2.50;1.05;;;9.10;99.90;;;;;;4408850;32;20156;-73
2023/01/14 10:28:26;;;;;;;0.70;0.70;;;9.10;99.90;;;;;;4406716;32;20081;-72
2023/01/14 10:30:52;;;;;;;3.12;0.85;;;9.10;99.90;;;;;;4403542;32;20434;-75
2023/01/14 10:33:20;;;;;;;0.40;0.40;;;9.10;99.90;;;;;;4406273;32;20065;-73
2023/01/14 10:35:59;;;;;;;0.55;0.52;;;9.10;99.90;;;;;;4405552;32;20119;-73
2023/01/14 10:38:26;;;;;;;0.37;0.37;;;9.10;99.90;;;;;;4406631;32;20095;-73
2023/01/14 10:40:57;;;;;;;0.90;0.85;;;9.10;99.90;;;;;;4382582;32;20092;-74
2023/01/14 10:43:33;;;;;;;3.65;0.68;;;9.20;99.90;;;;;;4387920;32;20090;-75
2023/01/14 10:45:59;;;;;;;0.45;0.45;;;9.20;99.90;;;;;;4401822;32;20676;-74
2023/01/14 10:48:28;;;;;;;10.55;1.33;;;9.10;99.90;;;;;;4405494;32;20105;-72
2023/01/14 10:50:53;;;;;;;4.18;0.98;;;9.10;99.90;;;;;;4405361;32;20101;-73
2023/01/14 10:53:22;;;;;;;1.10;0.68;;;9.20;99.90;;;;;;4406466;32;20978;-74
2023/01/14 10:55:52;;;;;;;0.93;0.93;;;9.30;99.90;;;;;;4406806;32;20205;-75
2023/01/14 10:58:28;;;;;;;2.50;0.82;;;9.30;99.90;;;;;;4406064;32;20121;-74
2023/01/14 11:01:00;;;;;;;4.35;0.60;;;9.20;99.90;;;;;;4404963;32;20363;-72
2023/01/14 11:03:30;;;;;;;0.30;0.30;;;9.20;99.90;;;;;;4403416;32;20094;-72
2023/01/14 11:05:59;;;;;;;0.40;0.40;;;9.20;99.90;;;;;;4406228;32;20670;-73
2023/01/14 11:08:36;;;;;;;2.25;1.35;;;9.20;99.90;;;;;;4406181;32;20128;-71
2023/01/14 11:11:11;;;;;;;2.00;0.95;;;9.10;99.90;;;;;;4396676;32;20545;-75
2023/01/14 11:13:44;;;;;;;0.30;0.30;;;9.20;99.90;;;;;;4388386;32;20441;-72
2023/01/14 11:16:28;;;;;;;1.27;1.20;;;9.20;99.90;;;;;;4402540;32;20109;-76
2023/01/14 11:18:56;;;;;;;1.25;1.15;;;9.30;99.90;;;;;;4404838;32;20085;-72
2023/01/14 11:21:24;;;;;;;2.45;1.15;;;9.20;99.90;;;;;;4405859;32;20097;-74
2023/01/14 11:24:22;;;;;;;1.33;1.02;;;9.20;99.90;;;;;;4405608;32;20069;-73
2023/01/14 11:26:49;;;;;;;0.62;0.62;;;9.20;99.90;;;;;;4406718;32;20146;-73
2023/01/14 11:29:34;;;;;;;0.55;0.55;;;9.20;99.90;;;;;;4405687;32;20070;-72
2023/01/14 11:32:11;;;;;;;1.15;0.88;;;9.20;99.90;;;;;;4405484;32;20209;-72
2023/01/14 11:34:43;;;;;;;0.30;0.30;;;9.10;99.90;;;;;;4404417;32;20532;-72
2023/01/14 11:37:13;;;;;;;0.40;0.40;;;9.10;99.90;;;;;;4389674;32;20574;-73
2023/01/14 11:39:48;;;;;;;0.40;0.40;;;9.00;99.90;;;;;;4402001;32;20168;-73
2023/01/14 11:42:38;;;;;;;1.10;0.98;;;9.00;99.90;;;;;;4371967;32;605996;-75
2023/01/14 11:45:14;;;;;;;0.50;0.50;;;9.00;99.90;;;;;;4381653;32;20066;-76
2023/01/14 11:47:49;;;;;;;0.40;0.40;;;8.90;99.90;;;;;;4406519;32;20106;-73
2023/01/14 11:50:35;;;;;;;1.75;1.00;;;8.90;99.90;;;;;;4405265;32;20193;-73
2023/01/14 11:53:06;;;;;;;0.35;0.35;;;9.00;99.90;;;;;;4404891;32;20089;-75
2023/01/14 11:55:36;;;;;;;0.85;0.77;;;9.00;99.90;;;;;;4407694;32;20085;-71
2023/01/14 11:58:09;;;;;;;0.30;0.30;;;9.10;99.90;;;;;;4407084;32;20094;-73
2023/01/14 12:00:38;;;;;;;9.25;2.12;;;9.10;99.90;;;;;;4403312;32;20485;-71
2023/01/14 12:03:10;;;;;;;0.40;0.40;;;8.90;99.90;;;;;;4391355;32;20168;-73
2023/01/14 12:05:38;;;;;;;0.45;0.45;;;9.00;99.90;;;;;;4406615;32;20062;-74
2023/01/14 12:08:14;;;;;;;0.55;0.55;;;8.90;99.90;;;;;;4406530;32;20616;-72
2023/01/14 12:10:44;;;;;;;2.20;0.93;;;9.00;99.90;;;;;;4397442;32;20121;-75
2023/01/14 12:16:59;;;;;;;0.37;0.37;;;8.90;99.90;;;;;;4378694;32;20123;-72
2023/01/14 12:19:16;;;;;;;0.40;0.40;;;8.90;99.90;;;;;;4391614;32;20411;-72
2023/01/14 12:21:49;;;;;;;1.00;1.00;;;9.00;99.90;;;;;;4403449;32;20562;-72
2023/01/14 12:24:26;;;;;;;0.35;0.35;;;8.90;99.90;;;;;;4403570;32;20058;-75
2023/01/14 12:26:54;;;;;;;0.40;0.40;;;8.90;99.90;;;;;;4404802;32;20144;-73
2023/01/14 12:29:26;;;;;;;0.40;0.40;;;8.90;99.90;;;;;;4405083;32;20102;-72
2023/01/14 12:31:59;;;;;;;1.87;0.70;;;8.80;99.90;;;;;;4403888;32;20093;-74
2023/01/14 12:34:37;;;;;;;0.55;0.55;;;8.80;99.90;;;;;;4404787;32;20061;-73
2023/01/14 12:37:10;;;;;;;3.72;0.80;;;8.80;99.90;;;;;;4406867;32;20451;-72
2023/01/14 12:45:41;;;;;;;0.70;0.70;;;8.70;99.90;;;;;;4371265;32;20089;-75
2023/01/14 12:48:08;;;;;;;1.27;0.82;;;8.70;99.90;;;;;;4405191;32;20439;-71
2023/01/14 12:50:36;;;;;;;1.37;0.68;;;8.70;99.90;;;;;;4394345;32;20101;-74
2023/01/14 12:53:03;;;;;;;1.52;0.62;;;8.80;99.90;;;;;;4405431;32;20078;-71
2023/01/14 12:55:35;;;;;;;0.47;0.47;;;8.80;99.90;;;;;;4407365;32;20066;-72
2023/01/14 12:58:03;;;;;;;0.70;0.70;;;8.80;99.90;;;;;;4407238;32;20105;-73
2023/01/14 13:00:33;;;;;;;1.27;0.88;;;8.80;99.90;;;;;;4407230;32;20069;-72
2023/01/14 13:03:05;;;;;;;2.12;1.62;;;8.70;99.90;;;;;;4408028;32;20506;-74
2023/01/14 13:05:39;;;;;;;2.85;1.25;;;8.70;99.90;;;;;;4406720;32;20121;-72
2023/01/14 13:08:19;;;;;;;0.30;0.30;;;8.60;99.90;;;;;;4407209;32;20073;-73
2023/01/14 13:10:45;;;;;;;0.60;0.60;;;8.70;99.90;;;;;;4397075;32;20082;-75
2023/01/14 13:13:26;;;;;;;0.80;0.80;;;8.70;99.90;;;;;;4388402;32;20604;-75
2023/01/14 13:15:51;;;;;;;;;;;8.70;99.90;;;;;;4389330;32;20139;-73
2023/01/14 13:18:38;;;;;;;0.40;0.40;;;8.80;99.90;;;;;;4408407;32;20092;-75
2023/01/14 13:21:07;;;;;;;0.40;0.40;;;8.70;99.90;;;;;;4395283;32;20094;-74
2023/01/14 13:23:38;;;;;;;0.40;0.40;;;8.80;99.90;;;;;;4407958;32;20482;-72
2023/01/14 13:26:40;;;;;;;1.65;0.65;;;8.70;99.90;;;;;;4405728;32;20081;-72
2023/01/14 13:29:25;;;;;;;0.77;0.77;;;8.70;99.90;;;;;;4385138;32;20086;-75
2023/01/14 13:31:53;;;;;;;0.40;0.40;;;8.70;99.90;;;;;;4409588;32;20097;-73
2023/01/14 13:34:26;;;;;;;0.73;0.62;;;8.70;99.90;;;;;;4409291;32;20687;-73
2023/01/14 13:37:13;;;;;;;0.60;0.60;;;8.70;99.90;;;;;;4410307;32;20113;-75
2023/01/14 13:39:48;;;;;;;0.60;0.60;;;8.70;99.90;;;;;;4393951;32;20094;-75